sensor_id;sensor_type;location;lat;lon;timestamp;temperature;humidity
3602;DHT22;1815;50.950;6.920;2024-01-16T00:01:45;4.30;99.90
3602;DHT22;1815;50.950;6.920;2024-01-16T00:04:11;4.30;99.90
3602;DHT22;1815;50.950;6.920;2024-01-16T00:06:43;4.30;99.90
3602;DHT22;1815;50.950;6.920;2024-01-16T00:09:09;4.30;99.90
3602;DHT22;1815;50.950;6.920;2024-01-16T00:11:41;4.40;99.90
3602;DHT22;1815;50.950;6.920;2024-01-16T00:14:07;4.40;99.90
3602;DHT22;1815;50.950;6.920;2024-01-16T00:16:33;4.40;99.90
3602;DHT22;1815;50.950;6.920;2024-01-16T00:18:58;4.40;99.90
3602;DHT22;1815;50.950;6.920;2024-01-16T00:21:24;4.40;99.90
3602;DHT22;1815;50.950;6.920;2024-01-16T00:23:50;4.50;99.90
3602;DHT22;1815;50.950;6.920;2024-01-16T00:26:22;4.40;99.90
3602;DHT22;1815;50.950;6.920;2024-01-16T00:28:48;4.40;99.90
3602;DHT22;1815;50.950;6.920;2024-01-16T00:31:14;4.40;99.90
3602;DHT22;1815;50.950;6.920;2024-01-16T00:33:40;4.40;99.90
3602;DHT22;1815;50.950;6.920;2024-01-16T00:36:06;4.40;99.90
3602;DHT22;1815;50.950;6.920;2024-01-16T00:38:34;4.40;99.90
3602;DHT22;1815;50.950;6.920;2024-01-16T00:41:00;4.30;99.90
3602;DHT22;1815;50.950;6.920;2024-01-16T00:43:26;4.30;99.90
3602;DHT22;1815;50.950;6.920;2024-01-16T00:45:52;4.30;99.90
3602;DHT22;1815;50.950;6.920;2024-01-16T00:48:17;4.30;99.90
3602;DHT22;1815;50.950;6.920;2024-01-16T00:50:45;4.40;99.90
3602;DHT22;1815;50.950;6.920;2024-01-16T00:53:11;4.30;99.90
3602;DHT22;1815;50.950;6.920;2024-01-16T00:55:37;4.40;99.90
3602;DHT22;1815;50.950;6.920;2024-01-16T00:58:03;4.40;99.90
3602;DHT22;1815;50.950;6.920;2024-01-16T01:00:29;4.30;99.90
3602;DHT22;1815;50.950;6.920;2024-01-16T01:02:57;4.30;99.90
3602;DHT22;1815;50.950;6.920;2024-01-16T01:05:24;4.30;99.90
3602;DHT22;1815;50.950;6.920;2024-01-16T01:07:57;4.30;99.90
3602;DHT22;1815;50.950;6.920;2024-01-16T01:10:23;4.20;99.90
3602;DHT22;1815;50.950;6.920;2024-01-16T01:12:49;4.20;99.90
3602;DHT22;1815;50.950;6.920;2024-01-16T01:15:15;4.20;99.90
3602;DHT22;1815;50.950;6.920;2024-01-16T01:17:41;4.20;99.90
3602;DHT22;1815;50.950;6.920;2024-01-16T01:20:08;4.20;99.90
3602;DHT22;1815;50.950;6.920;2024-01-16T01:22:34;4.20;99.90
3602;DHT22;1815;50.950;6.920;2024-01-16T01:25:00;4.20;99.90
3602;DHT22;1815;50.950;6.920;2024-01-16T01:27:26;4.20;99.90
3602;DHT22;1815;50.950;6.920;2024-01-16T01:29:52;4.20;99.90
3602;DHT22;1815;50.950;6.920;2024-01-16T01:32:17;4.20;99.90
3602;DHT22;1815;50.950;6.920;2024-01-16T01:34:43;4.20;99.90
3602;DHT22;1815;50.950;6.920;2024-01-16T01:37:09;4.20;99.90
3602;DHT22;1815;50.950;6.920;2024-01-16T01:39:34;4.20;99.90
3602;DHT22;1815;50.950;6.920;2024-01-16T01:42:00;4.10;99.90
3602;DHT22;1815;50.950;6.920;2024-01-16T01:44:26;4.10;99.90
3602;DHT22;1815;50.950;6.920;2024-01-16T01:46:54;4.10;99.90
3602;DHT22;1815;50.950;6.920;2024-01-16T01:49:20;4.10;99.90
3602;DHT22;1815;50.950;6.920;2024-01-16T01:51:47;4.10;99.90
3602;DHT22;1815;50.950;6.920;2024-01-16T01:54:14;4.10;99.90
3602;DHT22;1815;50.950;6.920;2024-01-16T01:56:44;4.10;99.90
3602;DHT22;1815;50.950;6.920;2024-01-16T01:59:10;4.10;99.90
3602;DHT22;1815;50.950;6.920;2024-01-16T02:01:36;4.10;99.90
3602;DHT22;1815;50.950;6.920;2024-01-16T02:04:04;4.10;99.90
3602;DHT22;1815;50.950;6.920;2024-01-16T02:06:30;4.00;99.90
3602;DHT22;1815;50.950;6.920;2024-01-16T02:08:57;4.10;99.90
3602;DHT22;1815;50.950;6.920;2024-01-16T02:11:23;4.00;99.90
3602;DHT22;1815;50.950;6.920;2024-01-16T02:13:48;4.10;99.90
3602;DHT22;1815;50.950;6.920;2024-01-16T02:16:21;4.10;99.90
3602;DHT22;1815;50.950;6.920;2024-01-16T02:18:48;4.00;99.90
3602;DHT22;1815;50.950;6.920;2024-01-16T02:21:25;4.00;99.90
3602;DHT22;1815;50.950;6.920;2024-01-16T02:23:53;4.00;99.90
3602;DHT22;1815;50.950;6.920;2024-01-16T02:26:19;4.00;99.90
3602;DHT22;1815;50.950;6.920;2024-01-16T02:28:45;4.00;99.90
3602;DHT22;1815;50.950;6.920;2024-01-16T02:31:11;3.90;99.90
3602;DHT22;1815;50.950;6.920;2024-01-16T02:33:38;4.00;99.90
3602;DHT22;1815;50.950;6.920;2024-01-16T02:36:03;4.00;99.90
3602;DHT22;1815;50.950;6.920;2024-01-16T02:38:29;4.00;99.90
3602;DHT22;1815;50.950;6.920;2024-01-16T02:40:55;4.00;99.90
3602;DHT22;1815;50.950;6.920;2024-01-16T02:43:21;4.00;99.90
3602;DHT22;1815;50.950;6.920;2024-01-16T02:45:47;4.00;99.90
3602;DHT22;1815;50.950;6.920;2024-01-16T02:48:13;4.00;99.90
3602;DHT22;1815;50.950;6.920;2024-01-16T02:50:39;4.00;99.90
3602;DHT22;1815;50.950;6.920;2024-01-16T02:53:04;4.00;99.90
3602;DHT22;1815;50.950;6.920;2024-01-16T02:55:30;4.00;99.90
3602;DHT22;1815;50.950;6.920;2024-01-16T02:57:56;4.00;99.90
3602;DHT22;1815;50.950;6.920;2024-01-16T03:00:21;4.00;99.90
3602;DHT22;1815;50.950;6.920;2024-01-16T03:02:48;4.00;99.90
3602;DHT22;1815;50.950;6.920;2024-01-16T03:05:14;4.00;99.90
3602;DHT22;1815;50.950;6.920;2024-01-16T03:07:41;3.90;99.90
3602;DHT22;1815;50.950;6.920;2024-01-16T03:10:07;3.90;99.90
3602;DHT22;1815;50.950;6.920;2024-01-16T03:12:33;3.90;99.90
3602;DHT22;1815;50.950;6.920;2024-01-16T03:14:58;3.90;99.90
3602;DHT22;1815;50.950;6.920;2024-01-16T03:17:24;3.90;99.90
3602;DHT22;1815;50.950;6.920;2024-01-16T03:19:50;3.90;99.90
3602;DHT22;1815;50.950;6.920;2024-01-16T03:22:16;3.90;99.90
3602;DHT22;1815;50.950;6.920;2024-01-16T03:24:41;3.90;99.90
3602;DHT22;1815;50.950;6.920;2024-01-16T03:27:07;3.90;99.90
3602;DHT22;1815;50.950;6.920;2024-01-16T03:29:33;3.90;99.90
3602;DHT22;1815;50.950;6.920;2024-01-16T03:31:59;3.90;99.90
3602;DHT22;1815;50.950;6.920;2024-01-16T03:34:26;3.90;99.90
3602;DHT22;1815;50.950;6.920;2024-01-16T03:36:52;3.90;99.90
3602;DHT22;1815;50.950;6.920;2024-01-16T03:39:18;3.90;99.90
3602;DHT22;1815;50.950;6.920;2024-01-16T03:41:44;3.90;99.90
3602;DHT22;1815;50.950;6.920;2024-01-16T03:44:09;3.90;99.90
3602;DHT22;1815;50.950;6.920;2024-01-16T03:46:35;3.90;99.90
3602;DHT22;1815;50.950;6.920;2024-01-16T03:49:01;3.90;99.90
3602;DHT22;1815;50.950;6.920;2024-01-16T03:51:26;3.90;99.90
3602;DHT22;1815;50.950;6.920;2024-01-16T03:53:52;4.00;99.90
3602;DHT22;1815;50.950;6.920;2024-01-16T03:56:18;4.00;99.90
3602;DHT22;1815;50.950;6.920;2024-01-16T03:58:43;4.00;99.90
3602;DHT22;1815;50.950;6.920;2024-01-16T04:01:09;4.00;99.90
3602;DHT22;1815;50.950;6.920;2024-01-16T04:03:35;4.00;99.90
3602;DHT22;1815;50.950;6.920;2024-01-16T04:06:01;4.00;99.90
3602;DHT22;1815;50.950;6.920;2024-01-16T04:08:27;4.00;99.90
3602;DHT22;1815;50.950;6.920;2024-01-16T04:10:52;4.00;99.90
3602;DHT22;1815;50.950;6.920;2024-01-16T04:13:18;4.00;99.90
3602;DHT22;1815;50.950;6.920;2024-01-16T04:15:44;4.10;99.90
3602;DHT22;1815;50.950;6.920;2024-01-16T04:18:10;4.10;99.90
3602;DHT22;1815;50.950;6.920;2024-01-16T04:20:36;4.00;99.90
3602;DHT22;1815;50.950;6.920;2024-01-16T04:23:02;4.00;99.90
3602;DHT22;1815;50.950;6.920;2024-01-16T04:25:28;4.00;99.90
3602;DHT22;1815;50.950;6.920;2024-01-16T04:27:54;4.00;99.90
3602;DHT22;1815;50.950;6.920;2024-01-16T04:30:20;4.00;99.90
3602;DHT22;1815;50.950;6.920;2024-01-16T04:32:46;3.90;99.90
3602;DHT22;1815;50.950;6.920;2024-01-16T04:35:12;3.90;99.90
3602;DHT22;1815;50.950;6.920;2024-01-16T04:37:38;3.90;99.90
3602;DHT22;1815;50.950;6.920;2024-01-16T04:40:05;3.90;99.90
3602;DHT22;1815;50.950;6.920;2024-01-16T04:42:32;3.80;99.90
3602;DHT22;1815;50.950;6.920;2024-01-16T04:44:57;3.90;99.90
3602;DHT22;1815;50.950;6.920;2024-01-16T04:47:23;3.80;99.90
3602;DHT22;1815;50.950;6.920;2024-01-16T04:49:49;3.80;99.90
3602;DHT22;1815;50.950;6.920;2024-01-16T04:52:14;3.80;99.90
3602;DHT22;1815;50.950;6.920;2024-01-16T04:54:42;3.80;99.90
3602;DHT22;1815;50.950;6.920;2024-01-16T04:57:07;3.80;99.90
3602;DHT22;1815;50.950;6.920;2024-01-16T04:59:33;3.80;99.90
3602;DHT22;1815;50.950;6.920;2024-01-16T05:02:00;3.80;99.90
3602;DHT22;1815;50.950;6.920;2024-01-16T05:04:26;3.80;99.90
3602;DHT22;1815;50.950;6.920;2024-01-16T05:06:52;3.80;99.90
3602;DHT22;1815;50.950;6.920;2024-01-16T05:09:18;3.80;99.90
3602;DHT22;1815;50.950;6.920;2024-01-16T05:11:45;3.80;99.90
3602;DHT22;1815;50.950;6.920;2024-01-16T05:14:11;3.80;99.90
3602;DHT22;1815;50.950;6.920;2024-01-16T05:16:37;3.80;99.90
3602;DHT22;1815;50.950;6.920;2024-01-16T05:19:02;3.80;99.90
3602;DHT22;1815;50.950;6.920;2024-01-16T05:21:28;3.80;99.90
3602;DHT22;1815;50.950;6.920;2024-01-16T05:23:54;3.80;99.90
3602;DHT22;1815;50.950;6.920;2024-01-16T05:26:20;3.90;99.90
3602;DHT22;1815;50.950;6.920;2024-01-16T05:28:45;3.90;99.90
3602;DHT22;1815;50.950;6.920;2024-01-16T05:31:11;3.90;99.90
3602;DHT22;1815;50.950;6.920;2024-01-16T05:33:37;4.00;99.90
3602;DHT22;1815;50.950;6.920;2024-01-16T05:36:02;3.90;99.90
3602;DHT22;1815;50.950;6.920;2024-01-16T05:38:28;4.00;99.90
3602;DHT22;1815;50.950;6.920;2024-01-16T05:40:54;4.00;99.90
3602;DHT22;1815;50.950;6.920;2024-01-16T05:43:20;4.00;99.90
3602;DHT22;1815;50.950;6.920;2024-01-16T05:45:45;4.00;99.90
3602;DHT22;1815;50.950;6.920;2024-01-16T05:48:11;4.10;99.90
3602;DHT22;1815;50.950;6.920;2024-01-16T05:50:37;4.10;99.90
3602;DHT22;1815;50.950;6.920;2024-01-16T05:53:03;4.10;99.90
3602;DHT22;1815;50.950;6.920;2024-01-16T05:55:29;4.10;99.90
3602;DHT22;1815;50.950;6.920;2024-01-16T05:57:58;4.10;99.90
3602;DHT22;1815;50.950;6.920;2024-01-16T06:00:25;4.10;99.90
3602;DHT22;1815;50.950;6.920;2024-01-16T06:02:50;4.10;99.90
3602;DHT22;1815;50.950;6.920;2024-01-16T06:05:16;4.10;99.90
3602;DHT22;1815;50.950;6.920;2024-01-16T06:07:42;4.10;99.90
3602;DHT22;1815;50.950;6.920;2024-01-16T06:10:11;4.20;99.90
3602;DHT22;1815;50.950;6.920;2024-01-16T06:12:37;4.10;99.90
3602;DHT22;1815;50.950;6.920;2024-01-16T06:15:03;4.20;99.90
3602;DHT22;1815;50.950;6.920;2024-01-16T06:17:29;4.10;99.90
3602;DHT22;1815;50.950;6.920;2024-01-16T06:19:54;4.10;99.90
3602;DHT22;1815;50.950;6.920;2024-01-16T06:22:20;4.10;99.90
3602;DHT22;1815;50.950;6.920;2024-01-16T06:24:46;4.10;99.90
3602;DHT22;1815;50.950;6.920;2024-01-16T06:27:12;4.10;99.90
3602;DHT22;1815;50.950;6.920;2024-01-16T06:29:45;4.00;99.90
3602;DHT22;1815;50.950;6.920;2024-01-16T06:32:11;4.00;99.90
3602;DHT22;1815;50.950;6.920;2024-01-16T06:34:40;4.00;99.90
3602;DHT22;1815;50.950;6.920;2024-01-16T06:37:06;4.00;99.90
3602;DHT22;1815;50.950;6.920;2024-01-16T06:39:32;4.00;99.90
3602;DHT22;1815;50.950;6.920;2024-01-16T06:41:58;4.00;99.90
3602;DHT22;1815;50.950;6.920;2024-01-16T06:44:24;4.00;99.90
3602;DHT22;1815;50.950;6.920;2024-01-16T06:46:50;4.00;99.90
3602;DHT22;1815;50.950;6.920;2024-01-16T06:49:15;4.00;99.90
3602;DHT22;1815;50.950;6.920;2024-01-16T06:51:41;4.00;99.90
3602;DHT22;1815;50.950;6.920;2024-01-16T06:54:07;4.00;99.90
3602;DHT22;1815;50.950;6.920;2024-01-16T06:56:33;4.00;99.90
3602;DHT22;1815;50.950;6.920;2024-01-16T06:58:59;4.00;99.90
3602;DHT22;1815;50.950;6.920;2024-01-16T07:01:24;4.10;99.90
3602;DHT22;1815;50.950;6.920;2024-01-16T07:03:50;4.00;99.90
3602;DHT22;1815;50.950;6.920;2024-01-16T07:06:18;4.10;99.90
3602;DHT22;1815;50.950;6.920;2024-01-16T07:08:44;4.10;99.90
3602;DHT22;1815;50.950;6.920;2024-01-16T07:11:10;4.10;99.90
3602;DHT22;1815;50.950;6.920;2024-01-16T07:13:39;4.10;99.90
3602;DHT22;1815;50.950;6.920;2024-01-16T07:16:08;4.10;99.90
3602;DHT22;1815;50.950;6.920;2024-01-16T07:18:34;4.10;99.90
3602;DHT22;1815;50.950;6.920;2024-01-16T07:21:00;4.10;99.90
3602;DHT22;1815;50.950;6.920;2024-01-16T07:23:27;4.10;99.90
3602;DHT22;1815;50.950;6.920;2024-01-16T07:25:52;4.10;99.90
3602;DHT22;1815;50.950;6.920;2024-01-16T07:28:18;4.10;99.90
3602;DHT22;1815;50.950;6.920;2024-01-16T07:30:44;4.20;99.90
3602;DHT22;1815;50.950;6.920;2024-01-16T07:33:10;4.20;99.90
3602;DHT22;1815;50.950;6.920;2024-01-16T07:35:37;4.20;99.90
3602;DHT22;1815;50.950;6.920;2024-01-16T07:38:04;4.20;99.90
3602;DHT22;1815;50.950;6.920;2024-01-16T07:40:30;4.20;99.90
3602;DHT22;1815;50.950;6.920;2024-01-16T07:42:56;4.20;99.90
3602;DHT22;1815;50.950;6.920;2024-01-16T07:45:21;4.20;99.90
3602;DHT22;1815;50.950;6.920;2024-01-16T07:47:47;4.20;99.90
3602;DHT22;1815;50.950;6.920;2024-01-16T07:50:13;4.20;99.90
3602;DHT22;1815;50.950;6.920;2024-01-16T07:52:39;4.20;99.90
3602;DHT22;1815;50.950;6.920;2024-01-16T07:55:05;4.20;99.90
3602;DHT22;1815;50.950;6.920;2024-01-16T07:57:31;4.20;99.90
3602;DHT22;1815;50.950;6.920;2024-01-16T07:59:56;4.20;99.90
3602;DHT22;1815;50.950;6.920;2024-01-16T08:02:26;4.30;99.90
3602;DHT22;1815;50.950;6.920;2024-01-16T08:04:52;4.30;99.90
3602;DHT22;1815;50.950;6.920;2024-01-16T08:07:18;4.30;99.90
3602;DHT22;1815;50.950;6.920;2024-01-16T08:09:44;4.30;99.90
3602;DHT22;1815;50.950;6.920;2024-01-16T08:12:09;4.30;99.90
3602;DHT22;1815;50.950;6.920;2024-01-16T08:14:35;4.30;99.90
3602;DHT22;1815;50.950;6.920;2024-01-16T08:17:01;4.30;99.90
3602;DHT22;1815;50.950;6.920;2024-01-16T08:19:27;4.30;99.90
3602;DHT22;1815;50.950;6.920;2024-01-16T08:21:52;4.30;99.90
3602;DHT22;1815;50.950;6.920;2024-01-16T08:24:18;4.40;99.90
3602;DHT22;1815;50.950;6.920;2024-01-16T08:26:44;4.40;99.90
3602;DHT22;1815;50.950;6.920;2024-01-16T08:29:10;4.50;99.90
3602;DHT22;1815;50.950;6.920;2024-01-16T08:31:35;4.50;99.90
3602;DHT22;1815;50.950;6.920;2024-01-16T08:34:01;4.50;99.90
3602;DHT22;1815;50.950;6.920;2024-01-16T08:36:27;4.60;99.90
3602;DHT22;1815;50.950;6.920;2024-01-16T08:38:52;4.60;99.90
3602;DHT22;1815;50.950;6.920;2024-01-16T08:41:19;4.70;99.90
3602;DHT22;1815;50.950;6.920;2024-01-16T08:43:45;4.70;99.90
3602;DHT22;1815;50.950;6.920;2024-01-16T08:46:11;4.80;99.90
3602;DHT22;1815;50.950;6.920;2024-01-16T08:48:37;4.80;99.90
3602;DHT22;1815;50.950;6.920;2024-01-16T08:51:07;4.80;99.90
3602;DHT22;1815;50.950;6.920;2024-01-16T08:53:33;4.80;99.90
3602;DHT22;1815;50.950;6.920;2024-01-16T08:56:00;4.90;99.90
3602;DHT22;1815;50.950;6.920;2024-01-16T08:58:26;4.90;99.90
3602;DHT22;1815;50.950;6.920;2024-01-16T09:00:52;4.90;99.90
3602;DHT22;1815;50.950;6.920;2024-01-16T09:03:18;5.00;99.90
3602;DHT22;1815;50.950;6.920;2024-01-16T09:05:43;5.00;99.90
3602;DHT22;1815;50.950;6.920;2024-01-16T09:08:09;5.00;99.90
3602;DHT22;1815;50.950;6.920;2024-01-16T09:10:35;5.10;99.90
3602;DHT22;1815;50.950;6.920;2024-01-16T09:13:01;5.10;99.90
3602;DHT22;1815;50.950;6.920;2024-01-16T09:15:26;5.20;99.90
3602;DHT22;1815;50.950;6.920;2024-01-16T09:17:52;5.20;99.90
3602;DHT22;1815;50.950;6.920;2024-01-16T09:20:18;5.30;99.90
3602;DHT22;1815;50.950;6.920;2024-01-16T09:22:43;5.30;99.90
3602;DHT22;1815;50.950;6.920;2024-01-16T09:25:09;5.40;99.90
3602;DHT22;1815;50.950;6.920;2024-01-16T09:27:35;5.40;99.90
3602;DHT22;1815;50.950;6.920;2024-01-16T09:30:00;5.50;99.90
3602;DHT22;1815;50.950;6.920;2024-01-16T09:32:26;5.50;99.90
3602;DHT22;1815;50.950;6.920;2024-01-16T09:34:52;5.50;99.90
3602;DHT22;1815;50.950;6.920;2024-01-16T09:37:17;5.50;99.90
3602;DHT22;1815;50.950;6.920;2024-01-16T09:39:43;5.50;99.90
3602;DHT22;1815;50.950;6.920;2024-01-16T09:42:10;5.50;99.90
3602;DHT22;1815;50.950;6.920;2024-01-16T09:44:35;5.50;99.90
3602;DHT22;1815;50.950;6.920;2024-01-16T09:47:02;5.50;99.90
3602;DHT22;1815;50.950;6.920;2024-01-16T09:49:29;5.50;99.90
3602;DHT22;1815;50.950;6.920;2024-01-16T09:51:55;5.50;99.90
3602;DHT22;1815;50.950;6.920;2024-01-16T09:54:21;5.60;99.90
3602;DHT22;1815;50.950;6.920;2024-01-16T09:56:50;5.60;99.90
3602;DHT22;1815;50.950;6.920;2024-01-16T09:59:17;5.60;99.90
3602;DHT22;1815;50.950;6.920;2024-01-16T10:01:48;5.70;99.90
3602;DHT22;1815;50.950;6.920;2024-01-16T10:04:21;5.70;99.90
3602;DHT22;1815;50.950;6.920;2024-01-16T10:06:48;5.70;99.90
3602;DHT22;1815;50.950;6.920;2024-01-16T10:09:15;5.80;99.90
3602;DHT22;1815;50.950;6.920;2024-01-16T10:11:42;5.80;99.90
3602;DHT22;1815;50.950;6.920;2024-01-16T10:14:08;5.90;99.90
3602;DHT22;1815;50.950;6.920;2024-01-16T10:16:59;5.90;99.90
3602;DHT22;1815;50.950;6.920;2024-01-16T10:19:29;6.00;99.90
3602;DHT22;1815;50.950;6.920;2024-01-16T10:22:03;6.10;99.90
3602;DHT22;1815;50.950;6.920;2024-01-16T10:24:29;6.20;99.90
3602;DHT22;1815;50.950;6.920;2024-01-16T10:26:59;6.20;99.90
3602;DHT22;1815;50.950;6.920;2024-01-16T10:29:26;6.30;99.90
3602;DHT22;1815;50.950;6.920;2024-01-16T10:31:52;6.40;99.90
3602;DHT22;1815;50.950;6.920;2024-01-16T10:34:22;6.50;99.90
3602;DHT22;1815;50.950;6.920;2024-01-16T10:36:50;6.60;99.90
3602;DHT22;1815;50.950;6.920;2024-01-16T10:39:17;6.70;99.90
3602;DHT22;1815;50.950;6.920;2024-01-16T10:41:59;6.80;99.90
3602;DHT22;1815;50.950;6.920;2024-01-16T10:44:25;6.80;99.90
3602;DHT22;1815;50.950;6.920;2024-01-16T10:47:09;6.90;99.90
3602;DHT22;1815;50.950;6.920;2024-01-16T10:49:37;6.90;99.90
3602;DHT22;1815;50.950;6.920;2024-01-16T10:52:06;6.90;99.90
3602;DHT22;1815;50.950;6.920;2024-01-16T10:54:36;6.90;99.90
3602;DHT22;1815;50.950;6.920;2024-01-16T10:57:03;6.80;99.90
3602;DHT22;1815;50.950;6.920;2024-01-16T10:59:35;6.70;99.90
3602;DHT22;1815;50.950;6.920;2024-01-16T11:02:04;6.70;99.90
3602;DHT22;1815;50.950;6.920;2024-01-16T11:04:35;6.50;99.90
3602;DHT22;1815;50.950;6.920;2024-01-16T11:07:04;6.50;99.90
3602;DHT22;1815;50.950;6.920;2024-01-16T11:09:31;6.40;99.90
3602;DHT22;1815;50.950;6.920;2024-01-16T11:11:58;6.40;99.90
3602;DHT22;1815;50.950;6.920;2024-01-16T11:14:25;6.30;99.90
3602;DHT22;1815;50.950;6.920;2024-01-16T11:16:51;6.30;99.90
3602;DHT22;1815;50.950;6.920;2024-01-16T11:19:19;6.20;99.90
3602;DHT22;1815;50.950;6.920;2024-01-16T11:21:46;6.20;99.90
3602;DHT22;1815;50.950;6.920;2024-01-16T11:24:12;6.20;99.90
3602;DHT22;1815;50.950;6.920;2024-01-16T11:26:41;6.20;99.90
3602;DHT22;1815;50.950;6.920;2024-01-16T11:31:51;6.10;99.90
3602;DHT22;1815;50.950;6.920;2024-01-16T11:37:11;6.10;99.90
3602;DHT22;1815;50.950;6.920;2024-01-16T11:39:37;6.10;99.90
3602;DHT22;1815;50.950;6.920;2024-01-16T11:42:04;6.00;99.90
3602;DHT22;1815;50.950;6.920;2024-01-16T11:44:49;6.00;99.90
3602;DHT22;1815;50.950;6.920;2024-01-16T11:47:21;6.00;99.90
3602;DHT22;1815;50.950;6.920;2024-01-16T11:49:48;6.00;99.90
3602;DHT22;1815;50.950;6.920;2024-01-16T11:52:14;6.00;99.90
3602;DHT22;1815;50.950;6.920;2024-01-16T11:54:41;6.00;99.90
3602;DHT22;1815;50.950;6.920;2024-01-16T11:57:35;6.00;99.90
3602;DHT22;1815;50.950;6.920;2024-01-16T12:00:05;6.00;99.90
3602;DHT22;1815;50.950;6.920;2024-01-16T12:02:53;6.00;99.90
3602;DHT22;1815;50.950;6.920;2024-01-16T12:05:21;5.90;99.90
3602;DHT22;1815;50.950;6.920;2024-01-16T12:07:51;5.90;99.90
3602;DHT22;1815;50.950;6.920;2024-01-16T12:10:26;5.80;99.90
3602;DHT22;1815;50.950;6.920;2024-01-16T12:12:59;5.80;99.90
3602;DHT22;1815;50.950;6.920;2024-01-16T12:15:25;5.80;99.90
3602;DHT22;1815;50.950;6.920;2024-01-16T12:17:59;5.70;99.90
3602;DHT22;1815;50.950;6.920;2024-01-16T12:20:29;5.80;99.90
3602;DHT22;1815;50.950;6.920;2024-01-16T12:25:21;5.90;99.90
3602;DHT22;1815;50.950;6.920;2024-01-16T12:28:02;5.90;99.90
3602;DHT22;1815;50.950;6.920;2024-01-16T12:30:31;6.00;99.90
3602;DHT22;1815;50.950;6.920;2024-01-16T12:33:06;6.10;99.90
3602;DHT22;1815;50.950;6.920;2024-01-16T12:35:35;6.10;99.90
3602;DHT22;1815;50.950;6.920;2024-01-16T12:38:02;6.10;99.90
3602;DHT22;1815;50.950;6.920;2024-01-16T12:40:29;6.20;99.90
3602;DHT22;1815;50.950;6.920;2024-01-16T12:42:55;6.20;99.90
3602;DHT22;1815;50.950;6.920;2024-01-16T12:45:22;6.30;99.90
3602;DHT22;1815;50.950;6.920;2024-01-16T12:47:54;6.30;99.90
3602;DHT22;1815;50.950;6.920;2024-01-16T12:50:27;6.30;99.90
3602;DHT22;1815;50.950;6.920;2024-01-16T12:53:06;6.30;99.90
3602;DHT22;1815;50.950;6.920;2024-01-16T12:55:39;6.30;99.90
3602;DHT22;1815;50.950;6.920;2024-01-16T12:58:38;6.20;99.90
3602;DHT22;1815;50.950;6.920;2024-01-16T13:03:47;6.20;99.90
3602;DHT22;1815;50.950;6.920;2024-01-16T13:06:18;6.10;99.90
3602;DHT22;1815;50.950;6.920;2024-01-16T13:08:50;6.00;99.90
3602;DHT22;1815;50.950;6.920;2024-01-16T13:11:17;6.00;99.90
3602;DHT22;1815;50.950;6.920;2024-01-16T13:13:46;5.90;99.90
3602;DHT22;1815;50.950;6.920;2024-01-16T13:16:15;5.90;99.90
3602;DHT22;1815;50.950;6.920;2024-01-16T13:19:00;5.80;99.90
3602;DHT22;1815;50.950;6.920;2024-01-16T13:21:26;5.80;99.90
3602;DHT22;1815;50.950;6.920;2024-01-16T13:23:52;5.70;99.90
3602;DHT22;1815;50.950;6.920;2024-01-16T13:26:17;5.70;99.90
3602;DHT22;1815;50.950;6.920;2024-01-16T13:28:43;5.60;99.90
3602;DHT22;1815;50.950;6.920;2024-01-16T13:31:09;5.60;99.90
3602;DHT22;1815;50.950;6.920;2024-01-16T13:33:35;5.40;99.90
3602;DHT22;1815;50.950;6.920;2024-01-16T13:36:00;5.40;99.90
3602;DHT22;1815;50.950;6.920;2024-01-16T13:38:26;5.30;99.90
3602;DHT22;1815;50.950;6.920;2024-01-16T13:40:52;5.20;99.90
3602;DHT22;1815;50.950;6.920;2024-01-16T13:43:18;5.10;99.90
3602;DHT22;1815;50.950;6.920;2024-01-16T13:45:44;5.10;99.90
3602;DHT22;1815;50.950;6.920;2024-01-16T13:48:10;5.00;99.90
3602;DHT22;1815;50.950;6.920;2024-01-16T13:50:35;4.90;99.90
3602;DHT22;1815;50.950;6.920;2024-01-16T13:53:02;4.90;99.90
3602;DHT22;1815;50.950;6.920;2024-01-16T13:55:28;4.80;99.90
3602;DHT22;1815;50.950;6.920;2024-01-16T13:57:55;4.80;99.90
3602;DHT22;1815;50.950;6.920;2024-01-16T14:00:23;4.80;99.90
3602;DHT22;1815;50.950;6.920;2024-01-16T14:02:49;4.80;99.90
3602;DHT22;1815;50.950;6.920;2024-01-16T14:05:18;4.80;99.90
3602;DHT22;1815;50.950;6.920;2024-01-16T14:07:45;4.70;99.90
3602;DHT22;1815;50.950;6.920;2024-01-16T14:10:16;4.70;99.90
3602;DHT22;1815;50.950;6.920;2024-01-16T14:12:43;4.70;99.90
3602;DHT22;1815;50.950;6.920;2024-01-16T14:15:15;4.60;99.90
3602;DHT22;1815;50.950;6.920;2024-01-16T14:17:47;4.60;99.90
3602;DHT22;1815;50.950;6.920;2024-01-16T14:20:14;4.50;99.90
3602;DHT22;1815;50.950;6.920;2024-01-16T14:22:41;4.50;99.90
3602;DHT22;1815;50.950;6.920;2024-01-16T14:25:11;4.50;99.90
3602;DHT22;1815;50.950;6.920;2024-01-16T14:30:29;4.40;99.90
3602;DHT22;1815;50.950;6.920;2024-01-16T14:32:58;4.40;99.90
3602;DHT22;1815;50.950;6.920;2024-01-16T14:35:25;4.30;99.90
3602;DHT22;1815;50.950;6.920;2024-01-16T14:40:57;4.30;99.90
3602;DHT22;1815;50.950;6.920;2024-01-16T14:43:24;4.20;99.90
3602;DHT22;1815;50.950;6.920;2024-01-16T14:45:49;4.20;99.90
3602;DHT22;1815;50.950;6.920;2024-01-16T14:48:15;4.20;99.90
3602;DHT22;1815;50.950;6.920;2024-01-16T14:56:30;4.10;99.90
3602;DHT22;1815;50.950;6.920;2024-01-16T14:58:57;4.00;99.90
3602;DHT22;1815;50.950;6.920;2024-01-16T15:01:23;4.00;99.90
3602;DHT22;1815;50.950;6.920;2024-01-16T15:03:49;4.00;99.90
3602;DHT22;1815;50.950;6.920;2024-01-16T15:06:34;3.90;99.90
3602;DHT22;1815;50.950;6.920;2024-01-16T15:12:35;3.90;99.90
3602;DHT22;1815;50.950;6.920;2024-01-16T15:15:08;3.80;99.90
3602;DHT22;1815;50.950;6.920;2024-01-16T15:17:57;3.80;99.90
3602;DHT22;1815;50.950;6.920;2024-01-16T15:20:42;3.70;99.90
3602;DHT22;1815;50.950;6.920;2024-01-16T15:23:12;3.70;99.90
3602;DHT22;1815;50.950;6.920;2024-01-16T15:25:57;3.70;99.90
3602;DHT22;1815;50.950;6.920;2024-01-16T15:28:47;3.60;99.90
3602;DHT22;1815;50.950;6.920;2024-01-16T15:31:13;3.60;99.90
3602;DHT22;1815;50.950;6.920;2024-01-16T15:33:39;3.50;99.90
3602;DHT22;1815;50.950;6.920;2024-01-16T15:36:05;3.50;99.90
3602;DHT22;1815;50.950;6.920;2024-01-16T15:38:32;3.40;99.90
3602;DHT22;1815;50.950;6.920;2024-01-16T15:40:58;3.40;99.90
3602;DHT22;1815;50.950;6.920;2024-01-16T15:43:24;3.40;99.90
3602;DHT22;1815;50.950;6.920;2024-01-16T15:45:50;3.30;99.90
3602;DHT22;1815;50.950;6.920;2024-01-16T15:48:18;3.30;99.90
3602;DHT22;1815;50.950;6.920;2024-01-16T15:50:45;3.20;99.90
3602;DHT22;1815;50.950;6.920;2024-01-16T15:53:16;3.20;99.90
3602;DHT22;1815;50.950;6.920;2024-01-16T15:55:42;3.10;99.90
3602;DHT22;1815;50.950;6.920;2024-01-16T15:58:08;3.10;99.90
3602;DHT22;1815;50.950;6.920;2024-01-16T16:00:34;3.10;99.90
3602;DHT22;1815;50.950;6.920;2024-01-16T16:02:59;3.00;99.90
3602;DHT22;1815;50.950;6.920;2024-01-16T16:05:25;2.90;99.90
3602;DHT22;1815;50.950;6.920;2024-01-16T16:07:51;2.90;99.90
3602;DHT22;1815;50.950;6.920;2024-01-16T16:10:17;2.90;99.90
3602;DHT22;1815;50.950;6.920;2024-01-16T16:12:43;2.80;99.90
3602;DHT22;1815;50.950;6.920;2024-01-16T16:15:09;2.80;99.90
3602;DHT22;1815;50.950;6.920;2024-01-16T16:17:35;2.70;99.90
3602;DHT22;1815;50.950;6.920;2024-01-16T16:20:01;2.70;99.90
3602;DHT22;1815;50.950;6.920;2024-01-16T16:22:28;2.70;99.90
3602;DHT22;1815;50.950;6.920;2024-01-16T16:24:54;2.60;99.90
3602;DHT22;1815;50.950;6.920;2024-01-16T16:27:25;2.60;99.90
3602;DHT22;1815;50.950;6.920;2024-01-16T16:29:55;2.60;99.90
3602;DHT22;1815;50.950;6.920;2024-01-16T16:32:39;2.50;99.90
3602;DHT22;1815;50.950;6.920;2024-01-16T16:35:09;2.50;99.90
3602;DHT22;1815;50.950;6.920;2024-01-16T16:37:38;2.50;99.90
3602;DHT22;1815;50.950;6.920;2024-01-16T16:40:06;2.40;99.90
3602;DHT22;1815;50.950;6.920;2024-01-16T16:42:35;2.40;99.90
3602;DHT22;1815;50.950;6.920;2024-01-16T16:45:04;2.40;99.90